sensor_id;sensor_type;location;lat;lon;timestamp;pressure;altitude;pressure_sealevel;temperature;humidity
69219;BME280;56232;53.384;-2.732;2023-05-29T00:02:05;102521.39;;;11.63;28.04
69219;BME280;56232;53.384;-2.732;2023-05-29T00:04:31;102524.08;;;10.97;27.74
69219;BME280;56232;53.384;-2.732;2023-05-29T00:06:56;102525.87;;;11.51;28.31
69219;BME280;56232;53.384;-2.732;2023-05-29T00:09:21;102526.70;;;11.50;27.83
69219;BME280;56232;53.384;-2.732;2023-05-29T00:11:47;102525.81;;;11.54;28.14
69219;BME280;56232;53.384;-2.732;2023-05-29T00:14:13;102520.76;;;10.94;28.23
69219;BME280;56232;53.384;-2.732;2023-05-29T00:16:38;102525.58;;;10.93;28.07
69219;BME280;56232;53.384;-2.732;2023-05-29T00:19:03;102531.49;;;11.46;28.25
69219;BME280;56232;53.384;-2.732;2023-05-29T00:21:29;102530.30;;;11.35;28.37
69219;BME280;56232;53.384;-2.732;2023-05-29T00:23:55;102532.68;;;11.37;27.82
69219;BME280;56232;53.384;-2.732;2023-05-29T00:26:20;102534.90;;;10.91;28.29
69219;BME280;56232;53.384;-2.732;2023-05-29T00:28:46;102535.44;;;10.93;27.64
69219;BME280;56232;53.384;-2.732;2023-05-29T00:31:11;102535.06;;;11.41;27.66
69219;BME280;56232;53.384;-2.732;2023-05-29T00:33:42;102535.78;;;11.50;27.06
69219;BME280;56232;53.384;-2.732;2023-05-29T00:36:03;102537.06;;;11.04;27.07
69219;BME280;56232;53.384;-2.732;2023-05-29T00:38:28;102540.23;;;11.02;27.06
69219;BME280;56232;53.384;-2.732;2023-05-29T00:40:54;102540.37;;;11.06;26.83
69219;BME280;56232;53.384;-2.732;2023-05-29T00:43:19;102537.31;;;11.02;26.52
69219;BME280;56232;53.384;-2.732;2023-05-29T00:45:45;102539.47;;;10.99;26.64
69219;BME280;56232;53.384;-2.732;2023-05-29T00:48:11;102537.48;;;10.90;26.46
69219;BME280;56232;53.384;-2.732;2023-05-29T00:50:37;102536.70;;;10.86;26.81
69219;BME280;56232;53.384;-2.732;2023-05-29T00:53:03;102535.65;;;11.32;26.22
69219;BME280;56232;53.384;-2.732;2023-05-29T00:55:27;102532.54;;;10.85;26.25
69219;BME280;56232;53.384;-2.732;2023-05-29T00:57:52;102531.02;;;11.36;26.46
69219;BME280;56232;53.384;-2.732;2023-05-29T01:00:19;102531.29;;;10.86;26.14
69219;BME280;56232;53.384;-2.732;2023-05-29T01:02:44;102533.75;;;10.85;26.42
69219;BME280;56232;53.384;-2.732;2023-05-29T01:05:09;102533.86;;;11.31;26.04
69219;BME280;56232;53.384;-2.732;2023-05-29T01:07:35;102532.45;;;11.36;25.74
69219;BME280;56232;53.384;-2.732;2023-05-29T01:10:01;102534.52;;;11.87;25.57
69219;BME280;56232;53.384;-2.732;2023-05-29T01:12:33;102539.04;;;10.83;25.48
69219;BME280;56232;53.384;-2.732;2023-05-29T01:17:21;102540.37;;;11.20;25.30
69219;BME280;56232;53.384;-2.732;2023-05-29T01:22:20;102543.27;;;11.52;25.74
69219;BME280;56232;53.384;-2.732;2023-05-29T01:24:38;102544.50;;;10.95;25.73
69219;BME280;56232;53.384;-2.732;2023-05-29T01:27:01;102548.11;;;10.97;25.49
69219;BME280;56232;53.384;-2.732;2023-05-29T01:29:29;102549.67;;;11.04;25.35
69219;BME280;56232;53.384;-2.732;2023-05-29T01:31:52;102550.89;;;11.17;25.14
69219;BME280;56232;53.384;-2.732;2023-05-29T01:34:17;102551.04;;;11.18;25.07
69219;BME280;56232;53.384;-2.732;2023-05-29T01:36:42;102554.50;;;11.21;24.99
69219;BME280;56232;53.384;-2.732;2023-05-29T01:39:09;102555.09;;;11.67;24.90
69219;BME280;56232;53.384;-2.732;2023-05-29T01:41:34;102557.71;;;11.11;24.86
69219;BME280;56232;53.384;-2.732;2023-05-29T01:44:01;102556.73;;;11.05;24.86
69219;BME280;56232;53.384;-2.732;2023-05-29T01:46:25;102555.30;;;11.10;24.74
69219;BME280;56232;53.384;-2.732;2023-05-29T01:48:50;102554.43;;;11.07;24.68
69219;BME280;56232;53.384;-2.732;2023-05-29T01:51:16;102553.80;;;10.97;24.66
69219;BME280;56232;53.384;-2.732;2023-05-29T01:53:42;102552.17;;;10.93;24.64
69219;BME280;56232;53.384;-2.732;2023-05-29T01:56:08;102554.62;;;10.86;24.62
69219;BME280;56232;53.384;-2.732;2023-05-29T01:58:34;102558.48;;;11.32;24.60
69219;BME280;56232;53.384;-2.732;2023-05-29T02:01:01;102558.64;;;10.73;24.55
69219;BME280;56232;53.384;-2.732;2023-05-29T02:03:25;102559.86;;;10.68;24.55
69219;BME280;56232;53.384;-2.732;2023-05-29T02:05:50;102559.57;;;10.66;24.53
69219;BME280;56232;53.384;-2.732;2023-05-29T02:08:16;102558.10;;;10.55;24.52
69219;BME280;56232;53.384;-2.732;2023-05-29T02:10:42;102560.46;;;10.47;24.52
69219;BME280;56232;53.384;-2.732;2023-05-29T02:13:08;102557.96;;;10.85;24.52
69219;BME280;56232;53.384;-2.732;2023-05-29T02:15:33;102559.09;;;10.26;24.54
69219;BME280;56232;53.384;-2.732;2023-05-29T02:17:59;102557.93;;;10.21;24.52
69219;BME280;56232;53.384;-2.732;2023-05-29T02:20:25;102557.64;;;10.62;24.53
69219;BME280;56232;53.384;-2.732;2023-05-29T02:22:50;102562.49;;;10.01;24.52
69219;BME280;56232;53.384;-2.732;2023-05-29T02:25:16;102566.84;;;10.43;24.53
69219;BME280;56232;53.384;-2.732;2023-05-29T02:27:41;102566.12;;;9.83;24.54
69219;BME280;56232;53.384;-2.732;2023-05-29T02:30:08;102567.15;;;10.87;24.55
69219;BME280;56232;53.384;-2.732;2023-05-29T02:32:33;102561.48;;;10.80;24.55
69219;BME280;56232;53.384;-2.732;2023-05-29T02:34:58;102562.44;;;10.09;24.56
69219;BME280;56232;53.384;-2.732;2023-05-29T02:37:24;102562.48;;;9.99;24.57
69219;BME280;56232;53.384;-2.732;2023-05-29T02:39:50;102561.61;;;9.91;24.60
69219;BME280;56232;53.384;-2.732;2023-05-29T02:42:15;102563.28;;;9.82;24.65
69219;BME280;56232;53.384;-2.732;2023-05-29T02:44:41;102563.85;;;9.81;24.64
69219;BME280;56232;53.384;-2.732;2023-05-29T02:47:07;102565.83;;;9.74;24.64
69219;BME280;56232;53.384;-2.732;2023-05-29T02:49:32;102568.11;;;10.27;24.66
69219;BME280;56232;53.384;-2.732;2023-05-29T02:51:58;102565.42;;;10.22;24.64
69219;BME280;56232;53.384;-2.732;2023-05-29T02:54:24;102558.32;;;9.56;24.66
69219;BME280;56232;53.384;-2.732;2023-05-29T02:56:49;102556.83;;;10.08;24.67
69219;BME280;56232;53.384;-2.732;2023-05-29T02:59:15;102564.50;;;9.97;24.75
69219;BME280;56232;53.384;-2.732;2023-05-29T03:01:41;102561.04;;;9.99;24.69
69219;BME280;56232;53.384;-2.732;2023-05-29T03:04:09;102559.52;;;9.93;24.70
69219;BME280;56232;53.384;-2.732;2023-05-29T03:06:33;102563.71;;;9.88;24.67
69219;BME280;56232;53.384;-2.732;2023-05-29T03:08:58;102566.34;;;9.19;24.70
69219;BME280;56232;53.384;-2.732;2023-05-29T03:11:24;102568.02;;;9.76;24.69
69219;BME280;56232;53.384;-2.732;2023-05-29T03:13:50;102570.10;;;10.20;24.68
69219;BME280;56232;53.384;-2.732;2023-05-29T03:16:16;102571.92;;;9.00;24.74
69219;BME280;56232;53.384;-2.732;2023-05-29T03:18:42;102571.87;;;9.53;24.74
69219;BME280;56232;53.384;-2.732;2023-05-29T03:21:08;102570.40;;;9.49;24.73
69219;BME280;56232;53.384;-2.732;2023-05-29T03:23:33;102570.39;;;9.44;24.72
69219;BME280;56232;53.384;-2.732;2023-05-29T03:25:58;102572.82;;;9.34;24.74
69219;BME280;56232;53.384;-2.732;2023-05-29T03:28:24;102569.98;;;9.31;24.76
69219;BME280;56232;53.384;-2.732;2023-05-29T03:30:50;102573.43;;;9.25;24.77
69219;BME280;56232;53.384;-2.732;2023-05-29T03:33:16;102571.46;;;9.20;24.78
69219;BME280;56232;53.384;-2.732;2023-05-29T03:35:42;102569.63;;;9.63;24.96
69219;BME280;56232;53.384;-2.732;2023-05-29T03:38:09;102568.43;;;9.09;24.95
69219;BME280;56232;53.384;-2.732;2023-05-29T03:40:33;102569.85;;;9.62;25.02
69219;BME280;56232;53.384;-2.732;2023-05-29T03:42:58;102570.58;;;9.62;25.00
69219;BME280;56232;53.384;-2.732;2023-05-29T03:45:24;102572.06;;;9.65;24.97
69219;BME280;56232;53.384;-2.732;2023-05-29T03:47:50;102573.49;;;10.23;24.96
69219;BME280;56232;53.384;-2.732;2023-05-29T03:50:16;102572.37;;;9.13;24.95
69219;BME280;56232;53.384;-2.732;2023-05-29T03:52:41;102573.29;;;10.19;25.06
69219;BME280;56232;53.384;-2.732;2023-05-29T03:55:09;102574.10;;;9.12;25.07
69219;BME280;56232;53.384;-2.732;2023-05-29T03:57:33;102575.68;;;9.67;25.00
69219;BME280;56232;53.384;-2.732;2023-05-29T03:59:58;102574.03;;;9.23;24.95
69219;BME280;56232;53.384;-2.732;2023-05-29T04:02:24;102575.82;;;9.25;24.86
69219;BME280;56232;53.384;-2.732;2023-05-29T04:04:50;102574.65;;;9.22;24.86
69219;BME280;56232;53.384;-2.732;2023-05-29T04:07:16;102575.84;;;9.21;24.84
69219;BME280;56232;53.384;-2.732;2023-05-29T04:09:41;102577.39;;;10.34;24.81
69219;BME280;56232;53.384;-2.732;2023-05-29T04:12:08;102579.42;;;9.75;24.83
69219;BME280;56232;53.384;-2.732;2023-05-29T04:14:32;102585.57;;;9.29;24.84
69219;BME280;56232;53.384;-2.732;2023-05-29T04:16:58;102585.78;;;9.28;24.84
69219;BME280;56232;53.384;-2.732;2023-05-29T04:19:24;102587.11;;;9.32;24.85
69219;BME280;56232;53.384;-2.732;2023-05-29T04:21:50;102587.78;;;9.38;24.91
69219;BME280;56232;53.384;-2.732;2023-05-29T04:24:15;102587.27;;;9.44;24.92
69219;BME280;56232;53.384;-2.732;2023-05-29T04:26:41;102590.73;;;9.50;24.79
69219;BME280;56232;53.384;-2.732;2023-05-29T04:29:07;102586.85;;;9.47;24.98
69219;BME280;56232;53.384;-2.732;2023-05-29T04:31:32;102588.31;;;10.06;24.93
69219;BME280;56232;53.384;-2.732;2023-05-29T04:33:58;102590.46;;;9.68;24.89
69219;BME280;56232;53.384;-2.732;2023-05-29T04:36:24;102592.21;;;9.77;24.89
69219;BME280;56232;53.384;-2.732;2023-05-29T04:38:49;102595.36;;;9.89;24.83
69219;BME280;56232;53.384;-2.732;2023-05-29T04:41:15;102596.18;;;9.43;24.77
69219;BME280;56232;53.384;-2.732;2023-05-29T04:43:40;102597.80;;;10.13;24.75
69219;BME280;56232;53.384;-2.732;2023-05-29T04:46:07;102599.20;;;10.28;24.70
69219;BME280;56232;53.384;-2.732;2023-05-29T04:48:32;102597.32;;;10.41;24.62
69219;BME280;56232;53.384;-2.732;2023-05-29T04:50:58;102597.34;;;9.95;24.69
69219;BME280;56232;53.384;-2.732;2023-05-29T04:53:23;102595.34;;;10.61;24.72
69219;BME280;56232;53.384;-2.732;2023-05-29T04:55:49;102595.77;;;9.63;24.62
69219;BME280;56232;53.384;-2.732;2023-05-29T04:58:14;102600.98;;;10.88;24.62
69219;BME280;56232;53.384;-2.732;2023-05-29T05:00:40;102603.57;;;10.97;24.57
69219;BME280;56232;53.384;-2.732;2023-05-29T05:03:06;102604.33;;;10.48;24.38
69219;BME280;56232;53.384;-2.732;2023-05-29T05:05:30;102607.74;;;10.15;24.51
69219;BME280;56232;53.384;-2.732;2023-05-29T05:07:56;102611.34;;;10.82;25.00
69219;BME280;56232;53.384;-2.732;2023-05-29T05:10:22;102611.54;;;10.72;24.72
69219;BME280;56232;53.384;-2.732;2023-05-29T05:12:47;102607.03;;;10.74;25.63
69219;BME280;56232;53.384;-2.732;2023-05-29T05:15:13;102604.67;;;10.75;25.11
69219;BME280;56232;53.384;-2.732;2023-05-29T05:17:39;102604.61;;;11.48;24.85
69219;BME280;56232;53.384;-2.732;2023-05-29T05:20:06;102607.50;;;11.03;25.87
69219;BME280;56232;53.384;-2.732;2023-05-29T05:22:30;102609.68;;;11.02;25.72
69219;BME280;56232;53.384;-2.732;2023-05-29T05:24:56;102613.08;;;11.23;26.10
69219;BME280;56232;53.384;-2.732;2023-05-29T05:27:21;102614.33;;;11.33;25.25
69219;BME280;56232;53.384;-2.732;2023-05-29T05:29:47;102618.76;;;10.32;26.19
69219;BME280;56232;53.384;-2.732;2023-05-29T05:32:12;102621.67;;;11.69;26.41
69219;BME280;56232;53.384;-2.732;2023-05-29T05:34:38;102619.58;;;12.06;26.46
69219;BME280;56232;53.384;-2.732;2023-05-29T05:37:04;102623.34;;;12.39;26.03
69219;BME280;56232;53.384;-2.732;2023-05-29T05:39:29;102630.18;;;12.84;25.97
69219;BME280;56232;53.384;-2.732;2023-05-29T05:41:55;102638.63;;;12.04;25.31
69219;BME280;56232;53.384;-2.732;2023-05-29T05:44:21;102640.71;;;12.40;25.99
69219;BME280;56232;53.384;-2.732;2023-05-29T05:46:46;102639.36;;;13.01;25.32
69219;BME280;56232;53.384;-2.732;2023-05-29T05:49:12;102642.04;;;13.30;25.37
69219;BME280;56232;53.384;-2.732;2023-05-29T05:51:38;102642.03;;;14.15;24.28
69219;BME280;56232;53.384;-2.732;2023-05-29T05:54:03;102640.12;;;14.30;23.95
69219;BME280;56232;53.384;-2.732;2023-05-29T05:56:28;102642.97;;;15.04;24.32
69219;BME280;56232;53.384;-2.732;2023-05-29T05:58:54;102647.66;;;14.84;24.65
69219;BME280;56232;53.384;-2.732;2023-05-29T06:01:20;102644.47;;;16.64;24.29
69219;BME280;56232;53.384;-2.732;2023-05-29T06:03:45;102645.06;;;18.85;22.86
69219;BME280;56232;53.384;-2.732;2023-05-29T06:06:10;102642.17;;;19.96;22.64
69219;BME280;56232;53.384;-2.732;2023-05-29T06:08:36;102642.08;;;23.37;21.56
69219;BME280;56232;53.384;-2.732;2023-05-29T06:11:01;102639.57;;;24.74;19.14
69219;BME280;56232;53.384;-2.732;2023-05-29T06:13:27;102637.68;;;26.54;16.96
69219;BME280;56232;53.384;-2.732;2023-05-29T06:15:52;102642.67;;;27.51;15.85
69219;BME280;56232;53.384;-2.732;2023-05-29T06:18:18;102642.61;;;27.96;14.71
69219;BME280;56232;53.384;-2.732;2023-05-29T06:20:44;102642.40;;;28.42;15.34
69219;BME280;56232;53.384;-2.732;2023-05-29T06:23:09;102640.79;;;30.01;14.87
69219;BME280;56232;53.384;-2.732;2023-05-29T06:25:35;102644.55;;;30.87;13.52
69219;BME280;56232;53.384;-2.732;2023-05-29T06:28:01;102647.93;;;31.03;12.92
69219;BME280;56232;53.384;-2.732;2023-05-29T06:30:26;102647.58;;;30.96;12.41
69219;BME280;56232;53.384;-2.732;2023-05-29T06:32:52;102649.32;;;32.95;12.28
69219;BME280;56232;53.384;-2.732;2023-05-29T06:35:17;102646.88;;;33.84;11.85
69219;BME280;56232;53.384;-2.732;2023-05-29T06:37:44;102643.92;;;35.08;11.13
69219;BME280;56232;53.384;-2.732;2023-05-29T06:40:09;102651.46;;;34.07;10.82
69219;BME280;56232;53.384;-2.732;2023-05-29T06:42:34;102655.55;;;34.55;9.89
69219;BME280;56232;53.384;-2.732;2023-05-29T06:44:59;102661.16;;;34.09;10.08
69219;BME280;56232;53.384;-2.732;2023-05-29T06:47:25;102659.46;;;34.31;9.93
69219;BME280;56232;53.384;-2.732;2023-05-29T06:49:50;102661.06;;;33.24;10.72
69219;BME280;56232;53.384;-2.732;2023-05-29T06:52:16;102661.20;;;34.13;9.86
69219;BME280;56232;53.384;-2.732;2023-05-29T06:54:41;102659.65;;;33.26;9.82
69219;BME280;56232;53.384;-2.732;2023-05-29T06:57:08;102661.33;;;33.29;10.26
69219;BME280;56232;53.384;-2.732;2023-05-29T06:59:33;102663.85;;;33.89;10.26
69219;BME280;56232;53.384;-2.732;2023-05-29T07:01:58;102666.50;;;34.58;10.21
69219;BME280;56232;53.384;-2.732;2023-05-29T07:04:24;102662.75;;;35.32;9.86
69219;BME280;56232;53.384;-2.732;2023-05-29T07:06:50;102662.61;;;35.51;9.70
69219;BME280;56232;53.384;-2.732;2023-05-29T07:09:15;102663.48;;;35.27;9.05
69219;BME280;56232;53.384;-2.732;2023-05-29T07:11:40;102664.89;;;34.57;8.81
69219;BME280;56232;53.384;-2.732;2023-05-29T07:14:06;102669.00;;;34.12;9.30
69219;BME280;56232;53.384;-2.732;2023-05-29T07:16:32;102674.17;;;33.54;8.93
69219;BME280;56232;53.384;-2.732;2023-05-29T07:18:57;102668.73;;;33.63;9.20
69219;BME280;56232;53.384;-2.732;2023-05-29T07:21:23;102665.06;;;34.87;8.85
69219;BME280;56232;53.384;-2.732;2023-05-29T07:23:48;102666.84;;;36.20;8.42
69219;BME280;56232;53.384;-2.732;2023-05-29T07:26:14;102660.10;;;35.30;8.67
69219;BME280;56232;53.384;-2.732;2023-05-29T07:28:39;102660.26;;;35.28;8.29
69219;BME280;56232;53.384;-2.732;2023-05-29T07:31:04;102659.07;;;34.63;8.54
69219;BME280;56232;53.384;-2.732;2023-05-29T07:33:30;102658.44;;;35.26;8.54
69219;BME280;56232;53.384;-2.732;2023-05-29T07:35:56;102660.16;;;32.71;9.09
69219;BME280;56232;53.384;-2.732;2023-05-29T07:38:21;102657.60;;;33.66;9.15
69219;BME280;56232;53.384;-2.732;2023-05-29T07:40:47;102654.71;;;35.04;8.76
69219;BME280;56232;53.384;-2.732;2023-05-29T07:43:12;102662.84;;;33.89;9.09
69219;BME280;56232;53.384;-2.732;2023-05-29T07:45:38;102657.07;;;33.81;9.12
69219;BME280;56232;53.384;-2.732;2023-05-29T07:48:04;102653.89;;;32.50;9.52
69219;BME280;56232;53.384;-2.732;2023-05-29T07:50:29;102659.13;;;33.39;8.98
69219;BME280;56232;53.384;-2.732;2023-05-29T07:52:54;102657.61;;;34.61;8.59
69219;BME280;56232;53.384;-2.732;2023-05-29T07:55:20;102657.06;;;35.68;8.49
69219;BME280;56232;53.384;-2.732;2023-05-29T07:57:45;102658.24;;;34.78;8.29
69219;BME280;56232;53.384;-2.732;2023-05-29T08:00:12;102658.88;;;35.73;8.18
69219;BME280;56232;53.384;-2.732;2023-05-29T08:02:37;102662.44;;;34.77;8.61
69219;BME280;56232;53.384;-2.732;2023-05-29T08:05:02;102668.10;;;35.69;8.57
69219;BME280;56232;53.384;-2.732;2023-05-29T08:07:28;102662.36;;;35.40;8.62
69219;BME280;56232;53.384;-2.732;2023-05-29T08:09:53;102665.75;;;36.25;8.17
69219;BME280;56232;53.384;-2.732;2023-05-29T08:12:19;102668.06;;;35.27;8.21
69219;BME280;56232;53.384;-2.732;2023-05-29T08:14:44;102669.75;;;34.50;8.44
69219;BME280;56232;53.384;-2.732;2023-05-29T08:17:10;102669.67;;;35.54;8.31
69219;BME280;56232;53.384;-2.732;2023-05-29T08:19:35;102676.48;;;36.62;7.84
69219;BME280;56232;53.384;-2.732;2023-05-29T08:22:01;102674.24;;;36.10;7.90
69219;BME280;56232;53.384;-2.732;2023-05-29T08:24:26;102672.22;;;35.24;8.08
69219;BME280;56232;53.384;-2.732;2023-05-29T08:26:52;102672.97;;;34.24;8.62
69219;BME280;56232;53.384;-2.732;2023-05-29T08:29:17;102671.65;;;34.74;8.46
69219;BME280;56232;53.384;-2.732;2023-05-29T08:31:43;102676.18;;;35.12;8.18
69219;BME280;56232;53.384;-2.732;2023-05-29T08:34:09;102672.11;;;34.22;8.63
69219;BME280;56232;53.384;-2.732;2023-05-29T08:36:48;102669.34;;;32.76;9.30
69219;BME280;56232;53.384;-2.732;2023-05-29T08:39:00;102676.45;;;30.83;9.78
69219;BME280;56232;53.384;-2.732;2023-05-29T08:41:31;102680.76;;;31.68;9.93
69219;BME280;56232;53.384;-2.732;2023-05-29T08:43:52;102679.96;;;30.76;10.21
69219;BME280;56232;53.384;-2.732;2023-05-29T08:46:18;102676.97;;;32.02;9.95
69219;BME280;56232;53.384;-2.732;2023-05-29T08:48:47;102672.03;;;33.28;9.51
69219;BME280;56232;53.384;-2.732;2023-05-29T08:51:10;102670.59;;;33.43;9.15
69219;BME280;56232;53.384;-2.732;2023-05-29T08:53:33;102673.87;;;32.12;9.12
69219;BME280;56232;53.384;-2.732;2023-05-29T08:55:59;102671.75;;;33.25;8.81
69219;BME280;56232;53.384;-2.732;2023-05-29T08:58:24;102668.07;;;33.17;9.32
69219;BME280;56232;53.384;-2.732;2023-05-29T09:00:50;102671.72;;;32.78;9.20
69219;BME280;56232;53.384;-2.732;2023-05-29T09:03:15;102666.51;;;32.51;9.07
69219;BME280;56232;53.384;-2.732;2023-05-29T09:05:41;102662.89;;;32.29;9.39
69219;BME280;56232;53.384;-2.732;2023-05-29T09:08:07;102667.32;;;32.05;9.47
69219;BME280;56232;53.384;-2.732;2023-05-29T09:10:31;102663.35;;;31.72;9.71
69219;BME280;56232;53.384;-2.732;2023-05-29T09:12:57;102658.86;;;32.32;9.70
69219;BME280;56232;53.384;-2.732;2023-05-29T09:15:23;102660.48;;;32.10;9.51
69219;BME280;56232;53.384;-2.732;2023-05-29T09:17:50;102656.41;;;31.82;10.01
69219;BME280;56232;53.384;-2.732;2023-05-29T09:20:15;102658.70;;;31.58;9.95
69219;BME280;56232;53.384;-2.732;2023-05-29T09:22:42;102664.69;;;30.97;10.12
69219;BME280;56232;53.384;-2.732;2023-05-29T09:25:05;102665.60;;;31.41;10.59
69219;BME280;56232;53.384;-2.732;2023-05-29T09:27:30;102656.39;;;30.11;10.80
69219;BME280;56232;53.384;-2.732;2023-05-29T09:29:55;102663.32;;;31.25;11.06
69219;BME280;56232;53.384;-2.732;2023-05-29T09:32:21;102656.80;;;30.98;11.01
69219;BME280;56232;53.384;-2.732;2023-05-29T09:34:47;102656.76;;;31.44;10.65
69219;BME280;56232;53.384;-2.732;2023-05-29T09:37:12;102659.80;;;31.23;10.01
69219;BME280;56232;53.384;-2.732;2023-05-29T09:39:44;102652.87;;;31.09;10.24
69219;BME280;56232;53.384;-2.732;2023-05-29T09:42:04;102655.78;;;30.91;10.57
69219;BME280;56232;53.384;-2.732;2023-05-29T09:44:30;102652.08;;;30.91;10.67
69219;BME280;56232;53.384;-2.732;2023-05-29T09:46:58;102643.83;;;30.57;10.53
69219;BME280;56232;53.384;-2.732;2023-05-29T09:49:22;102640.74;;;30.32;10.46
69219;BME280;56232;53.384;-2.732;2023-05-29T09:51:46;102641.04;;;30.32;10.47
69219;BME280;56232;53.384;-2.732;2023-05-29T09:54:15;102637.29;;;30.69;10.31
69219;BME280;56232;53.384;-2.732;2023-05-29T09:56:37;102632.50;;;31.61;10.43
69219;BME280;56232;53.384;-2.732;2023-05-29T09:59:02;102629.56;;;31.59;10.34
69219;BME280;56232;53.384;-2.732;2023-05-29T10:01:28;102628.32;;;31.91;10.31
69219;BME280;56232;53.384;-2.732;2023-05-29T10:03:53;102620.91;;;31.80;10.46
69219;BME280;56232;53.384;-2.732;2023-05-29T10:06:20;102622.56;;;32.43;10.19
69219;BME280;56232;53.384;-2.732;2023-05-29T10:08:46;102617.85;;;33.23;9.99
69219;BME280;56232;53.384;-2.732;2023-05-29T10:11:11;102617.80;;;33.22;9.90
69219;BME280;56232;53.384;-2.732;2023-05-29T10:13:38;102625.30;;;32.15;9.68
69219;BME280;56232;53.384;-2.732;2023-05-29T10:16:02;102621.19;;;31.27;9.88
69219;BME280;56232;53.384;-2.732;2023-05-29T10:18:31;102625.70;;;31.11;10.42
69219;BME280;56232;53.384;-2.732;2023-05-29T10:20:54;102616.77;;;29.98;10.70
69219;BME280;56232;53.384;-2.732;2023-05-29T10:23:19;102619.25;;;29.85;10.69
69219;BME280;56232;53.384;-2.732;2023-05-29T10:25:44;102616.97;;;30.00;11.07
69219;BME280;56232;53.384;-2.732;2023-05-29T10:28:09;102615.04;;;30.85;11.19
69219;BME280;56232;53.384;-2.732;2023-05-29T10:30:38;102613.08;;;30.34;11.12
69219;BME280;56232;53.384;-2.732;2023-05-29T10:33:09;102614.29;;;30.01;11.13
69219;BME280;56232;53.384;-2.732;2023-05-29T10:35:31;102620.70;;;29.17;11.42
69219;BME280;56232;53.384;-2.732;2023-05-29T10:37:54;102618.43;;;28.78;11.96
69219;BME280;56232;53.384;-2.732;2023-05-29T10:40:22;102614.95;;;28.75;11.90
69219;BME280;56232;53.384;-2.732;2023-05-29T10:42:44;102608.01;;;28.82;12.18
69219;BME280;56232;53.384;-2.732;2023-05-29T10:45:09;102607.98;;;29.76;11.96
69219;BME280;56232;53.384;-2.732;2023-05-29T10:47:33;102614.25;;;29.08;11.75
69219;BME280;56232;53.384;-2.732;2023-05-29T10:50:00;102613.02;;;28.61;11.66
69219;BME280;56232;53.384;-2.732;2023-05-29T10:52:24;102610.43;;;28.28;12.12
69219;BME280;56232;53.384;-2.732;2023-05-29T10:54:51;102613.63;;;27.76;12.44
69219;BME280;56232;53.384;-2.732;2023-05-29T10:57:15;102612.94;;;26.87;12.57
69219;BME280;56232;53.384;-2.732;2023-05-29T10:59:40;102614.33;;;27.79;13.16
69219;BME280;56232;53.384;-2.732;2023-05-29T11:02:06;102613.40;;;27.17;13.30
69219;BME280;56232;53.384;-2.732;2023-05-29T11:04:32;102607.18;;;25.04;13.99
69219;BME280;56232;53.384;-2.732;2023-05-29T11:06:58;102610.58;;;25.01;14.61
69219;BME280;56232;53.384;-2.732;2023-05-29T11:09:28;102602.49;;;24.61;15.14
69219;BME280;56232;53.384;-2.732;2023-05-29T11:14:14;102597.31;;;24.58;15.04
69219;BME280;56232;53.384;-2.732;2023-05-29T11:16:39;102592.89;;;24.76;15.21
69219;BME280;56232;53.384;-2.732;2023-05-29T11:19:07;102597.45;;;24.29;15.62
69219;BME280;56232;53.384;-2.732;2023-05-29T11:21:34;102592.21;;;24.08;15.81
69219;BME280;56232;53.384;-2.732;2023-05-29T11:23:58;102589.17;;;24.04;15.80
69219;BME280;56232;53.384;-2.732;2023-05-29T11:26:25;102591.24;;;23.86;15.92
69219;BME280;56232;53.384;-2.732;2023-05-29T11:28:48;102588.88;;;23.06;16.14
69219;BME280;56232;53.384;-2.732;2023-05-29T11:31:14;102583.98;;;22.82;16.26
69219;BME280;56232;53.384;-2.732;2023-05-29T11:33:40;102587.06;;;23.50;15.57
69219;BME280;56232;53.384;-2.732;2023-05-29T11:36:05;102586.65;;;23.48;16.02
69219;BME280;56232;53.384;-2.732;2023-05-29T11:38:30;102590.46;;;24.64;15.90
69219;BME280;56232;53.384;-2.732;2023-05-29T11:40:55;102583.60;;;24.42;15.79
69219;BME280;56232;53.384;-2.732;2023-05-29T11:43:21;102587.27;;;24.87;15.27
69219;BME280;56232;53.384;-2.732;2023-05-29T11:45:46;102585.57;;;24.72;15.03
69219;BME280;56232;53.384;-2.732;2023-05-29T11:48:12;102583.09;;;24.40;15.61
69219;BME280;56232;53.384;-2.732;2023-05-29T11:50:37;102581.02;;;24.60;15.72
69219;BME280;56232;53.384;-2.732;2023-05-29T11:53:06;102584.68;;;24.76;15.67
69219;BME280;56232;53.384;-2.732;2023-05-29T11:55:29;102582.21;;;25.68;15.24
69219;BME280;56232;53.384;-2.732;2023-05-29T11:57:57;102582.68;;;25.88;15.24
69219;BME280;56232;53.384;-2.732;2023-05-29T12:00:20;102575.93;;;24.16;15.27
69219;BME280;56232;53.384;-2.732;2023-05-29T12:02:47;102578.86;;;23.92;15.39
69219;BME280;56232;53.384;-2.732;2023-05-29T12:05:11;102574.37;;;24.82;15.29
69219;BME280;56232;53.384;-2.732;2023-05-29T12:07:37;102572.93;;;25.06;15.49
69219;BME280;56232;53.384;-2.732;2023-05-29T12:10:09;102571.20;;;24.37;15.61
69219;BME280;56232;53.384;-2.732;2023-05-29T12:12:28;102574.70;;;24.38;15.07
69219;BME280;56232;53.384;-2.732;2023-05-29T12:14:53;102569.48;;;25.13;15.41
69219;BME280;56232;53.384;-2.732;2023-05-29T12:17:19;102569.57;;;24.80;15.57
69219;BME280;56232;53.384;-2.732;2023-05-29T12:19:44;102567.44;;;25.03;15.16
69219;BME280;56232;53.384;-2.732;2023-05-29T12:22:10;102561.14;;;24.89;15.10
69219;BME280;56232;53.384;-2.732;2023-05-29T12:24:35;102559.32;;;25.40;15.52
69219;BME280;56232;53.384;-2.732;2023-05-29T12:27:03;102565.47;;;25.07;15.61
69219;BME280;56232;53.384;-2.732;2023-05-29T12:29:30;102562.12;;;24.18;15.38
69219;BME280;56232;53.384;-2.732;2023-05-29T12:31:57;102561.73;;;25.75;15.50
69219;BME280;56232;53.384;-2.732;2023-05-29T12:34:18;102564.57;;;24.19;15.46
69219;BME280;56232;53.384;-2.732;2023-05-29T12:36:43;102560.37;;;25.42;15.60
69219;BME280;56232;53.384;-2.732;2023-05-29T12:39:10;102556.67;;;25.10;15.40
69219;BME280;56232;53.384;-2.732;2023-05-29T12:41:36;102563.20;;;25.76;15.12